Skip Navigation Links Skip Navigation Links

Current Weather

Three Rivers Muni Dr Haines, Three Rivers, Mich.

For information only: do not use for flight planning or navigation.
Latest weather
Observation time Tuesday, October 19, 2021 5:15 AM EDT
Local time Tuesday, October 19, 2021 5:29 AM EDT
Flight conditions Visual Meteorological Conditions
Winds
Wind direction South-Southwest (200°)
Wind speed 3 mph
Visibility 10 mi.
Sky condition
Ceiling unlimited
Sky clear
Temperature 46°F
Dewpoint 44°F
Altimeter 30.12 in.Hg
Derived measurements
Relative humidity 93%
Wind chill 44°F
Density altitude -153 ft.
Remarks
Fully automated report.
Automated weather observing station with precipitation discriminator.
METAR KHAI 190915Z AUTO 20003KT 10SM CLR 08/07 A3012 RMK AO2 T00760066

Settings

Location code

InnerDrive.Weather 4.0.6770.0 Release CLR 4.0.30319.42000
Copyright ©2018 Inner Drive Technology. All rights reserved. Portions Copyright ©1986-2018 David Braverman.

Find weather

Site navigation


Skip Navigation Links

Place info

Page info

PayPal - The safer, easier way to pay online!

Return home.

Copyright ©2021 Inner Drive Technology. Purveyors of fine, hand-crafted computer software. Page printed 2021-10-19T09:29:04 UTC.